createdAt,value
2019-03-30T08:57:45.073Z,17.47
2019-03-30T08:58:44.966Z,16.77
2019-03-30T08:59:44.959Z,15.65
2019-03-30T09:00:44.959Z,15.35
2019-03-30T09:01:44.933Z,15.70
2019-03-30T09:02:44.924Z,16.62
2019-03-30T09:03:44.934Z,16.44
2019-03-30T09:04:44.905Z,16.67
2019-03-30T09:05:44.925Z,16.49
2019-03-30T09:06:44.933Z,16.72
2019-03-30T09:07:44.901Z,17.42
2019-03-30T09:08:44.891Z,17.35
2019-03-30T09:09:44.895Z,17.62
2019-03-30T09:10:44.834Z,17.10
2019-03-30T09:11:44.831Z,16.90
2019-03-30T09:12:44.916Z,16.91
2019-03-30T09:13:44.834Z,16.36
2019-03-30T09:14:44.815Z,16.45
2019-03-30T09:15:44.802Z,17.12
2019-03-30T09:16:44.777Z,17.35
2019-03-30T09:17:44.780Z,17.28
2019-03-30T09:18:44.748Z,17.50
2019-03-30T09:19:44.745Z,17.54
2019-03-30T09:20:44.749Z,18.11
2019-03-30T09:21:44.878Z,18.87
2019-03-30T09:22:44.703Z,18.45
2019-03-30T09:23:44.747Z,17.39
2019-03-30T09:24:44.713Z,17.81
2019-03-30T09:25:44.677Z,18.14
2019-03-30T09:26:44.674Z,17.92
2019-03-30T09:27:44.758Z,18.68
2019-03-30T09:28:44.649Z,18.63
2019-03-30T09:29:44.640Z,18.76
2019-03-30T09:30:44.625Z,19.00
2019-03-30T09:31:44.617Z,18.69
2019-03-30T09:32:45.205Z,18.53
2019-03-30T09:33:44.647Z,19.00
2019-03-30T09:34:44.713Z,19.28
2019-03-30T09:35:44.572Z,19.15
2019-03-30T09:36:44.729Z,18.71
2019-03-30T09:37:44.547Z,18.34
2019-03-30T09:38:44.531Z,18.78
2019-03-30T09:39:44.541Z,19.30
2019-03-30T09:40:44.521Z,19.32
2019-03-30T09:41:44.502Z,19.98
2019-03-30T09:42:44.492Z,19.64
2019-03-30T09:43:44.479Z,19.47
2019-03-30T09:44:44.529Z,19.15
2019-03-30T09:45:44.469Z,18.99
2019-03-30T09:46:44.448Z,18.34
2019-03-30T09:47:44.450Z,18.08
2019-03-30T09:48:44.454Z,18.82
2019-03-30T09:49:44.437Z,19.75
2019-03-30T09:50:44.399Z,19.23
2019-03-30T09:51:44.585Z,18.75
2019-03-30T09:52:44.377Z,19.02
2019-03-30T09:53:44.717Z,18.97
2019-03-30T09:54:44.352Z,19.35
2019-03-30T09:55:44.352Z,19.52
2019-03-30T09:56:44.344Z,19.98
2019-03-30T09:57:44.447Z,20.32
2019-03-30T09:58:44.317Z,20.01
2019-03-30T09:59:44.300Z,19.61
2019-03-30T10:00:44.295Z,19.34
2019-03-30T10:01:44.282Z,18.68
2019-03-30T10:02:44.266Z,18.41
2019-03-30T10:03:44.312Z,18.44
2019-03-30T10:04:44.246Z,19.17
2019-03-30T10:05:44.237Z,19.56
2019-03-30T10:06:44.228Z,19.55
2019-03-30T10:07:44.212Z,19.28
2019-03-30T10:08:44.201Z,20.00
2019-03-30T10:09:47.157Z,20.56
2019-03-30T10:10:44.181Z,20.88
2019-03-30T10:11:44.167Z,20.10
2019-03-30T10:12:44.157Z,19.50
2019-03-30T10:13:44.148Z,19.00
2019-03-30T10:14:44.138Z,19.38
2019-03-30T10:15:44.145Z,20.20
2019-03-30T10:16:44.135Z,20.19
2019-03-30T10:17:44.104Z,20.79
2019-03-30T10:18:44.100Z,21.83
2019-03-30T10:19:44.087Z,21.77
2019-03-30T10:20:44.075Z,21.56
2019-03-30T10:21:44.076Z,22.51
2019-03-30T10:22:44.089Z,21.66
2019-03-30T10:23:44.042Z,21.00
2019-03-30T10:24:44.037Z,20.34
2019-03-30T10:25:44.167Z,20.00
2019-03-30T10:26:44.012Z,20.20
2019-03-30T10:27:44.017Z,20.67
2019-03-30T10:28:46.946Z,20.32
2019-03-30T10:29:44.017Z,21.09
2019-03-30T10:30:44.000Z,21.25
2019-03-30T10:31:43.962Z,21.74
2019-03-30T10:32:43.950Z,22.61
2019-03-30T10:33:43.998Z,22.75
2019-03-30T10:34:43.932Z,23.00
2019-03-30T10:35:43.923Z,22.51
2019-03-30T10:36:43.945Z,22.24
2019-03-30T10:37:43.899Z,22.71
2019-03-30T10:38:43.880Z,21.67
2019-03-30T10:39:43.889Z,19.93
2019-03-30T10:40:43.862Z,20.01
2019-03-30T10:41:43.850Z,20.30
2019-03-30T10:42:43.841Z,20.20
2019-03-30T10:43:43.890Z,20.54
2019-03-30T10:44:43.845Z,20.32
2019-03-30T10:45:43.838Z,20.61
2019-03-30T10:46:43.796Z,20.25
2019-03-30T10:47:43.886Z,20.40
2019-03-30T10:48:43.783Z,20.64
2019-03-30T10:49:43.765Z,21.28
2019-03-30T10:50:43.763Z,21.12
2019-03-30T10:51:43.846Z,21.04
2019-03-30T10:52:43.739Z,20.85
2019-03-30T10:53:43.731Z,21.03
2019-03-30T10:54:52.665Z,21.09
2019-03-30T10:55:44.814Z,20.41
2019-03-30T10:56:43.692Z,20.58
2019-03-30T10:57:43.705Z,20.71
2019-03-30T10:58:43.668Z,20.79
2019-03-30T10:59:43.658Z,20.90
2019-03-30T11:00:43.642Z,21.00
2019-03-30T11:01:43.637Z,21.03
2019-03-30T11:02:43.622Z,20.88
2019-03-30T11:03:43.638Z,21.34
2019-03-30T11:04:43.603Z,20.82
2019-03-30T11:05:43.626Z,20.60
2019-03-30T11:06:43.664Z,20.61
2019-03-30T11:07:43.601Z,20.46
2019-03-30T11:08:43.597Z,20.56
2019-03-30T11:09:43.610Z,21.21
2019-03-30T11:10:43.544Z,21.13
2019-03-30T11:11:43.532Z,21.36
2019-03-30T11:12:43.532Z,21.96
2019-03-30T11:13:43.613Z,22.82
2019-03-30T11:14:43.499Z,22.97
2019-03-30T11:15:43.499Z,22.46
2019-03-30T11:16:43.489Z,21.74
2019-03-30T11:17:43.466Z,21.41
2019-03-30T11:18:43.463Z,22.44
2019-03-30T11:19:43.574Z,22.05
2019-03-30T11:20:43.441Z,21.74
2019-03-30T11:21:43.479Z,21.28
2019-03-30T11:22:43.412Z,21.23
2019-03-30T11:23:43.409Z,20.93
2019-03-30T11:24:43.396Z,20.64
2019-03-30T11:25:43.501Z,20.91
2019-03-30T11:26:43.364Z,21.06
2019-03-30T11:27:43.383Z,20.93
2019-03-30T11:28:43.350Z,20.94
2019-03-30T11:29:43.416Z,21.37
2019-03-30T11:30:43.325Z,22.00
2019-03-30T11:31:43.337Z,22.18
2019-03-30T11:32:43.303Z,21.58
2019-03-30T11:33:43.305Z,22.27
2019-03-30T11:34:43.278Z,22.57
2019-03-30T11:35:43.286Z,21.27
2019-03-30T11:36:43.283Z,21.46
2019-03-30T11:37:43.286Z,21.71
2019-03-30T11:38:43.245Z,21.77
2019-03-30T11:39:43.252Z,21.55
2019-03-30T11:40:43.227Z,21.40
2019-03-30T11:41:43.203Z,21.18
2019-03-30T11:42:43.196Z,21.71
2019-03-30T11:43:43.272Z,21.66
2019-03-30T11:44:43.172Z,21.55
2019-03-30T11:45:43.173Z,21.59
2019-03-30T11:46:43.155Z,21.19
2019-03-30T11:47:43.143Z,21.30
2019-03-30T11:48:43.123Z,20.53
2019-03-30T11:49:43.148Z,20.71
2019-03-30T11:50:43.149Z,21.15
2019-03-30T11:51:43.142Z,21.09
2019-03-30T11:52:43.085Z,20.93
2019-03-30T11:53:43.083Z,21.73
2019-03-30T11:54:43.066Z,22.04
2019-03-30T11:55:43.052Z,21.83
2019-03-30T11:56:43.075Z,22.14
2019-03-30T11:57:43.051Z,21.67
2019-03-30T11:58:43.020Z,21.78
2019-03-30T11:59:43.018Z,21.78
2019-03-30T12:00:43.057Z,22.29
2019-03-30T12:01:43.009Z,22.02
2019-03-30T12:02:42.986Z,21.80
2019-03-30T12:03:42.990Z,22.07
2019-03-30T12:04:42.960Z,21.74
2019-03-30T12:05:42.946Z,22.20
2019-03-30T12:06:42.933Z,22.26
2019-03-30T12:07:42.942Z,22.78
2019-03-30T12:08:42.915Z,23.37
2019-03-30T12:09:42.952Z,22.64
2019-03-30T12:10:42.908Z,22.55
2019-03-30T12:11:42.897Z,22.94
2019-03-30T12:12:42.890Z,22.84
2019-03-30T12:13:42.913Z,23.35
2019-03-30T12:14:42.865Z,23.70
2019-03-30T12:15:42.990Z,23.35
2019-03-30T12:16:42.827Z,22.70
2019-03-30T12:17:42.859Z,22.46
2019-03-30T12:18:42.814Z,23.00
2019-03-30T12:19:42.808Z,22.61
2019-03-30T12:20:42.789Z,22.44
2019-03-30T12:21:42.792Z,22.14
2019-03-30T12:22:42.759Z,23.01
2019-03-30T12:23:42.961Z,23.66
2019-03-30T12:24:42.751Z,24.34
2019-03-30T12:25:42.725Z,24.86
2019-03-30T12:26:42.718Z,25.33
2019-03-30T12:27:42.747Z,25.67
2019-03-30T12:28:42.719Z,25.63
2019-03-30T12:29:44.543Z,24.87
2019-03-30T12:30:42.687Z,23.94
2019-03-30T12:31:42.664Z,23.92
2019-03-30T12:32:42.715Z,24.12
2019-03-30T12:33:42.670Z,23.78
2019-03-30T12:34:42.653Z,23.66
2019-03-30T12:35:42.652Z,24.26
2019-03-30T12:36:42.613Z,24.17
2019-03-30T12:37:42.613Z,24.27
2019-03-30T12:38:42.604Z,23.63
2019-03-30T12:39:42.600Z,23.40
2019-03-30T12:40:42.577Z,22.75
2019-03-30T12:41:42.572Z,22.61
2019-03-30T12:42:42.551Z,22.76
2019-03-30T12:43:42.559Z,23.53
2019-03-30T12:44:42.530Z,22.96
2019-03-30T12:45:42.534Z,22.27
2019-03-30T12:46:42.506Z,22.00
2019-03-30T12:47:42.510Z,22.22
2019-03-30T12:48:42.508Z,22.76
2019-03-30T12:49:45.100Z,23.63
2019-03-30T12:50:42.470Z,23.00
2019-03-30T12:51:42.497Z,22.86
2019-03-30T12:52:42.442Z,22.92
2019-03-30T12:53:49.990Z,23.34
2019-03-30T12:54:43.425Z,23.97
2019-03-30T12:55:49.178Z,23.93
2019-03-30T12:56:43.424Z,23.07
2019-03-30T12:57:42.386Z,22.51
2019-03-30T12:58:42.383Z,22.70
2019-03-30T12:59:42.380Z,22.31
2019-03-30T13:00:42.377Z,22.81
2019-03-30T13:01:42.347Z,23.15
2019-03-30T13:02:42.380Z,22.61
2019-03-30T13:03:42.340Z,22.52
2019-03-30T13:04:42.317Z,22.16
2019-03-30T13:05:42.307Z,22.54
2019-03-30T13:06:42.310Z,22.33
2019-03-30T13:07:42.288Z,22.02
2019-03-30T13:08:42.295Z,21.77
2019-03-30T13:09:42.269Z,21.73
2019-03-30T13:10:45.317Z,22.00
2019-03-30T13:11:42.238Z,22.59
2019-03-30T13:12:42.233Z,21.74
2019-03-30T13:13:42.224Z,21.30
2019-03-30T13:14:42.221Z,22.12
2019-03-30T13:15:42.196Z,22.09
2019-03-30T13:16:42.201Z,22.04
2019-03-30T13:17:42.183Z,22.36
2019-03-30T13:18:42.181Z,22.08
2019-03-30T13:19:42.157Z,21.83
2019-03-30T13:20:42.157Z,22.22
2019-03-30T13:21:52.422Z,22.34
2019-03-30T13:22:43.130Z,22.04
2019-03-30T13:23:42.115Z,22.16
2019-03-30T13:24:42.102Z,21.90
2019-03-30T13:25:42.101Z,22.52
2019-03-30T13:26:42.111Z,22.36
2019-03-30T13:27:42.088Z,22.30
2019-03-30T13:28:42.058Z,22.39
2019-03-30T13:29:42.049Z,22.20
2019-03-30T13:30:42.032Z,22.22
2019-03-30T13:31:42.052Z,22.14
2019-03-30T13:32:42.045Z,22.14
2019-03-30T13:33:42.001Z,21.89
2019-03-30T13:34:41.991Z,21.09
2019-03-30T13:35:41.987Z,20.90
2019-03-30T13:36:42.056Z,21.30
2019-03-30T13:37:41.966Z,21.38
2019-03-30T13:38:41.984Z,21.85
2019-03-30T13:39:41.937Z,21.93
2019-03-30T13:40:41.931Z,22.24
2019-03-30T13:41:41.921Z,22.51
2019-03-30T13:42:41.902Z,22.55
2019-03-30T13:43:41.891Z,22.31
2019-03-30T13:44:42.058Z,21.73
2019-03-30T13:45:41.874Z,21.53
2019-03-30T13:46:41.867Z,21.30
2019-03-30T13:47:41.851Z,20.94
2019-03-30T13:48:41.841Z,20.96
2019-03-30T13:49:41.833Z,21.40
2019-03-30T13:50:41.831Z,21.62
2019-03-30T13:51:41.810Z,21.12
2019-03-30T13:52:41.793Z,20.72
2019-03-30T13:53:41.787Z,20.83
2019-03-30T13:54:41.786Z,20.60
2019-03-30T13:55:41.763Z,20.51
2019-03-30T13:56:41.765Z,19.98
2019-03-30T13:57:41.744Z,20.16
2019-03-30T13:58:41.730Z,20.34
2019-03-30T13:59:41.726Z,20.60
2019-03-30T14:00:41.786Z,20.60
2019-03-30T14:01:41.720Z,20.88
2019-03-30T14:02:44.089Z,20.71
2019-03-30T14:03:41.682Z,20.60
2019-03-30T14:04:41.669Z,20.53
2019-03-30T14:05:41.707Z,20.68
2019-03-30T14:06:41.659Z,21.04
2019-03-30T14:07:41.631Z,21.49
2019-03-30T14:08:41.640Z,21.30
2019-03-30T14:09:41.622Z,20.94
2019-03-30T14:10:41.616Z,20.64
2019-03-30T14:11:41.589Z,20.54
2019-03-30T14:12:41.615Z,20.30
2019-03-30T14:13:41.575Z,20.54
2019-03-30T14:14:41.605Z,20.66
2019-03-30T14:15:41.557Z,20.19
2019-03-30T14:16:41.534Z,20.12
2019-03-30T14:17:41.551Z,19.98
2019-03-30T14:18:41.539Z,20.15
2019-03-30T14:19:41.512Z,20.19
2019-03-30T14:20:41.510Z,20.49
2019-03-30T14:21:41.478Z,20.37
2019-03-30T14:22:41.470Z,20.15
2019-03-30T14:23:43.447Z,20.00
2019-03-30T14:24:41.452Z,19.87
2019-03-30T14:25:41.450Z,19.92
2019-03-30T14:26:41.446Z,19.90
2019-03-30T14:27:41.438Z,20.04
2019-03-30T14:28:41.427Z,20.10
2019-03-30T14:29:41.439Z,20.23
2019-03-30T14:30:41.391Z,20.19
2019-03-30T14:31:41.374Z,20.29
2019-03-30T14:32:41.372Z,20.37
2019-03-30T14:33:41.395Z,20.46
2019-03-30T14:34:41.377Z,20.38
2019-03-30T14:35:43.784Z,20.48
2019-03-30T14:36:41.423Z,20.53
2019-03-30T14:37:41.365Z,20.32
2019-03-30T14:38:41.371Z,20.46
2019-03-30T14:39:41.285Z,20.20
2019-03-30T14:40:41.278Z,20.18
2019-03-30T14:41:41.269Z,20.11
2019-03-30T14:42:41.246Z,20.19
2019-03-30T14:43:41.241Z,20.15
2019-03-30T14:44:41.239Z,20.07
2019-03-30T14:45:41.229Z,20.15
2019-03-30T14:46:41.207Z,20.25
2019-03-30T14:47:41.199Z,20.30
2019-03-30T14:48:41.290Z,20.15
2019-03-30T14:49:41.174Z,20.11
2019-03-30T14:50:41.183Z,19.97
2019-03-30T14:51:41.164Z,20.00
2019-03-30T14:52:41.284Z,20.01
2019-03-30T14:53:41.133Z,20.00
2019-03-30T14:54:52.031Z,19.86
2019-03-30T14:55:42.155Z,19.82
2019-03-30T14:56:45.761Z,19.74
2019-03-30T14:57:42.088Z,19.67
2019-03-30T14:58:41.159Z,19.74
2019-03-30T14:59:41.077Z,19.93
2019-03-30T15:00:41.199Z,20.01
2019-03-30T15:01:41.068Z,19.93
2019-03-30T15:02:41.051Z,19.86
2019-03-30T15:03:41.059Z,19.80
2019-03-30T15:04:41.030Z,19.57
2019-03-30T15:05:41.023Z,19.64
2019-03-30T15:06:41.014Z,19.63
2019-03-30T15:07:40.991Z,19.61
2019-03-30T15:08:40.974Z,19.47
2019-03-30T15:09:40.985Z,19.49
2019-03-30T15:10:40.998Z,19.56
2019-03-30T15:11:40.975Z,19.49
2019-03-30T15:12:40.939Z,19.50
2019-03-30T15:13:40.946Z,19.63
2019-03-30T15:14:40.913Z,19.50
2019-03-30T15:15:40.888Z,19.47
2019-03-30T15:16:40.876Z,19.50
2019-03-30T15:17:41.401Z,19.55
2019-03-30T15:18:40.857Z,19.53
2019-03-30T15:19:40.863Z,19.63
2019-03-30T15:20:40.844Z,19.50
2019-03-30T15:21:40.828Z,19.45
2019-03-30T15:22:40.830Z,19.42
2019-03-30T15:23:40.814Z,19.38
2019-03-30T15:24:40.794Z,19.47
2019-03-30T15:25:40.808Z,19.53
2019-03-30T15:26:40.773Z,19.64
2019-03-30T15:27:40.753Z,19.63
2019-03-30T15:28:42.789Z,19.64
2019-03-30T15:29:40.759Z,19.49
2019-03-30T15:30:40.730Z,19.52
2019-03-30T15:31:40.750Z,19.61
2019-03-30T15:32:40.708Z,19.50
2019-03-30T15:33:40.711Z,19.63
2019-03-30T15:34:40.689Z,19.61
2019-03-30T15:35:40.677Z,19.57
2019-03-30T15:36:41.228Z,19.47
2019-03-30T15:37:40.670Z,19.38
2019-03-30T15:38:40.634Z,19.43
2019-03-30T15:39:40.636Z,19.42
2019-03-30T15:40:40.612Z,19.45
2019-03-30T15:41:40.606Z,19.56
2019-03-30T15:42:40.816Z,19.40
2019-03-30T15:43:40.591Z,19.35
2019-03-30T15:44:40.683Z,19.38
2019-03-30T15:45:40.685Z,19.42
2019-03-30T15:46:40.546Z,19.38
2019-03-30T15:47:40.532Z,19.34
2019-03-30T15:48:40.523Z,19.32
2019-03-30T15:49:40.544Z,19.30
2019-03-30T15:50:40.501Z,19.28
2019-03-30T15:51:40.567Z,19.23
2019-03-30T15:52:40.484Z,19.20
2019-03-30T15:53:40.471Z,19.27
2019-03-30T15:54:40.490Z,19.23
2019-03-30T15:55:40.477Z,19.30
2019-03-30T15:56:40.435Z,19.46
2019-03-30T15:57:40.423Z,19.52
2019-03-30T15:58:40.414Z,19.40
2019-03-30T15:59:40.416Z,19.38
2019-03-30T16:00:40.404Z,19.24
2019-03-30T16:01:40.435Z,19.17
2019-03-30T16:02:40.378Z,19.10
2019-03-30T16:03:40.371Z,19.13
2019-03-30T16:04:40.365Z,19.13
2019-03-30T16:05:40.337Z,19.10
2019-03-30T16:06:40.342Z,19.13
2019-03-30T16:07:40.340Z,19.12
2019-03-30T16:08:40.374Z,19.13
2019-03-30T16:09:40.310Z,19.17
2019-03-30T16:10:40.282Z,19.17
2019-03-30T16:11:40.279Z,19.20
2019-03-30T16:12:40.263Z,19.16
2019-03-30T16:13:40.384Z,19.15
2019-03-30T16:14:40.240Z,19.05
2019-03-30T16:15:40.415Z,18.94
2019-03-30T16:16:40.858Z,18.81
2019-03-30T16:17:43.349Z,18.78
2019-03-30T16:18:41.495Z,18.74
2019-03-30T16:19:42.103Z,18.84
2019-03-30T16:20:41.607Z,18.86
2019-03-30T16:21:41.220Z,18.71
2019-03-30T16:22:40.770Z,18.75
2019-03-30T16:23:40.717Z,18.69
2019-03-30T16:24:41.157Z,18.84
2019-03-30T16:25:43.877Z,18.82
2019-03-30T16:26:42.477Z,18.86
2019-03-30T16:27:41.255Z,18.93
2019-03-30T16:28:41.103Z,18.94
2019-03-30T16:29:40.697Z,18.91
2019-03-30T16:30:41.687Z,18.90
2019-03-30T16:31:40.084Z,18.93
2019-03-30T16:32:40.046Z,18.86
2019-03-30T16:33:40.037Z,18.90
2019-03-30T16:34:40.037Z,18.90
2019-03-30T16:35:40.400Z,19.02
2019-03-30T16:36:40.001Z,19.20
2019-03-30T16:37:40.012Z,19.15
2019-03-30T16:38:39.980Z,19.20
2019-03-30T16:39:39.992Z,19.17
2019-03-30T16:40:39.957Z,19.17
2019-03-30T16:41:39.947Z,19.24
2019-03-30T16:42:39.982Z,19.34
2019-03-30T16:43:40.014Z,19.24
2019-03-30T16:44:40.435Z,19.19
2019-03-30T16:45:39.918Z,19.24
2019-03-30T16:46:39.910Z,19.23
2019-03-30T16:47:39.884Z,19.13
2019-03-30T16:48:39.883Z,19.16
2019-03-30T16:49:39.888Z,19.05
2019-03-30T16:50:39.852Z,19.05
2019-03-30T16:51:39.835Z,18.96
2019-03-30T16:52:41.154Z,18.90
2019-03-30T16:53:39.820Z,18.90
2019-03-30T16:54:39.807Z,19.05
2019-03-30T16:55:39.828Z,18.89
2019-03-30T16:56:39.782Z,18.90
2019-03-30T16:57:43.408Z,18.75
2019-03-30T16:58:39.768Z,18.69
2019-03-30T16:59:39.763Z,18.71
2019-03-30T17:00:55.401Z,18.54
2019-03-30T17:01:40.758Z,18.51
2019-03-30T17:02:39.720Z,18.47
2019-03-30T17:03:39.798Z,18.57
2019-03-30T17:04:39.701Z,18.72
2019-03-30T17:05:39.685Z,18.69
2019-03-30T17:06:39.685Z,18.78
2019-03-30T17:07:39.685Z,18.72
2019-03-30T17:08:39.650Z,18.65
2019-03-30T17:09:39.643Z,18.69
2019-03-30T17:10:40.382Z,18.78
2019-03-30T17:11:39.623Z,18.63
2019-03-30T17:12:39.610Z,18.74
2019-03-30T17:13:39.608Z,18.71
2019-03-30T17:14:39.585Z,18.53
2019-03-30T17:15:39.577Z,18.41
2019-03-30T17:16:39.582Z,18.49
2019-03-30T17:17:39.551Z,18.50
2019-03-30T17:18:39.541Z,18.57
2019-03-30T17:19:39.546Z,18.53
2019-03-30T17:20:39.516Z,18.42
2019-03-30T17:21:39.563Z,18.49
2019-03-30T17:22:39.524Z,18.38
2019-03-30T17:23:39.484Z,18.39
2019-03-30T17:24:39.474Z,18.34
2019-03-30T17:25:39.477Z,18.36
2019-03-30T17:26:39.462Z,18.39
2019-03-30T17:27:39.439Z,18.42
2019-03-30T17:28:39.469Z,18.32
2019-03-30T17:29:39.420Z,18.31
2019-03-30T17:30:39.410Z,18.10
2019-03-30T17:31:39.423Z,17.87
2019-03-30T17:32:39.417Z,17.68
2019-03-30T17:33:39.398Z,17.42
2019-03-30T17:34:39.368Z,17.05
2019-03-30T17:35:39.354Z,17.05
2019-03-30T17:36:39.364Z,16.99
2019-03-30T17:37:39.355Z,16.87
2019-03-30T17:38:39.319Z,16.67
2019-03-30T17:39:39.308Z,16.51
2019-03-30T17:40:39.327Z,16.49
2019-03-30T17:41:39.286Z,16.30
2019-03-30T17:42:39.385Z,16.22
2019-03-30T17:43:39.277Z,16.11
2019-03-30T17:44:39.257Z,15.99
2019-03-30T17:45:39.244Z,15.83
2019-03-30T17:46:39.232Z,15.78
2019-03-30T17:47:39.222Z,15.74
2019-03-30T17:48:39.255Z,15.67
2019-03-30T17:49:39.231Z,15.49
2019-03-30T17:50:39.187Z,15.35
2019-03-30T17:51:39.179Z,15.37
2019-03-30T17:52:46.212Z,15.19
2019-03-30T17:53:39.575Z,15.33
2019-03-30T17:54:39.919Z,15.18
2019-03-30T17:55:39.153Z,15.10
2019-03-30T17:56:39.124Z,15.10
2019-03-30T17:57:39.114Z,15.07
2019-03-30T17:58:39.105Z,15.01
2019-03-30T17:59:39.094Z,14.85
2019-03-30T18:00:39.084Z,14.77
2019-03-30T18:01:39.085Z,14.77
2019-03-30T18:02:39.063Z,14.74
2019-03-30T18:03:39.052Z,14.77
2019-03-30T18:04:39.212Z,14.64
2019-03-30T18:05:39.032Z,14.51
2019-03-30T18:06:39.015Z,14.39
2019-03-30T18:07:39.019Z,14.34
2019-03-30T18:08:38.992Z,14.30
2019-03-30T18:09:38.978Z,14.27
2019-03-30T18:10:38.972Z,14.28
2019-03-30T18:11:38.962Z,14.27
2019-03-30T18:12:38.947Z,14.34
2019-03-30T18:13:38.950Z,14.36
2019-03-30T18:14:38.924Z,14.38
2019-03-30T18:15:38.915Z,14.38
2019-03-30T18:16:38.902Z,14.34
2019-03-30T18:17:38.892Z,14.30
2019-03-30T18:18:38.896Z,14.20
2019-03-30T18:19:38.887Z,14.16
2019-03-30T18:20:38.973Z,14.09
2019-03-30T18:21:38.845Z,14.01
2019-03-30T18:22:38.863Z,13.91
2019-03-30T18:23:38.832Z,13.87
2019-03-30T18:24:38.820Z,13.75
2019-03-30T18:25:38.823Z,13.78
2019-03-30T18:26:38.797Z,13.70
2019-03-30T18:27:38.790Z,13.69
2019-03-30T18:28:38.774Z,13.81
2019-03-30T18:29:38.769Z,13.73
2019-03-30T18:30:38.757Z,13.68
2019-03-30T18:31:38.761Z,13.66
2019-03-30T18:32:38.732Z,13.60
2019-03-30T18:33:38.719Z,13.53
2019-03-30T18:34:38.708Z,13.45
2019-03-30T18:35:38.695Z,13.65
2019-03-30T18:36:38.698Z,13.73
2019-03-30T18:37:38.703Z,13.87
2019-03-30T18:38:38.664Z,13.78
2019-03-30T18:39:38.654Z,13.73
2019-03-30T18:40:38.652Z,13.75
2019-03-30T18:41:38.636Z,13.76
2019-03-30T18:42:38.622Z,13.86
2019-03-30T18:43:38.622Z,13.75
2019-03-30T18:44:38.601Z,13.73
2019-03-30T18:45:38.595Z,13.68
2019-03-30T18:46:38.576Z,13.63
2019-03-30T18:47:38.566Z,13.63
2019-03-30T18:48:38.553Z,13.66
2019-03-30T18:49:38.563Z,13.57
2019-03-30T18:50:38.538Z,13.55
2019-03-30T18:51:38.521Z,13.44
2019-03-30T18:52:38.512Z,13.40
2019-03-30T18:53:38.499Z,13.31
2019-03-30T18:54:38.560Z,13.31
2019-03-30T18:55:38.511Z,13.19
2019-03-30T18:56:38.463Z,13.20
2019-03-30T18:57:38.454Z,12.99
2019-03-30T18:58:41.815Z,12.94
2019-03-30T18:59:38.434Z,12.89
2019-03-30T19:00:38.428Z,12.80
2019-03-30T19:01:38.428Z,12.77
2019-03-30T19:02:38.404Z,12.80
2019-03-30T19:03:38.387Z,12.76
2019-03-30T19:04:38.378Z,12.69
2019-03-30T19:05:38.366Z,12.69
2019-03-30T19:06:38.353Z,12.71
2019-03-30T19:07:38.363Z,12.63
2019-03-30T19:08:38.331Z,12.63
2019-03-30T19:09:38.319Z,12.66
2019-03-30T19:10:38.313Z,12.59
2019-03-30T19:11:38.302Z,12.66
2019-03-30T19:12:38.288Z,12.59
2019-03-30T19:13:38.316Z,12.58
2019-03-30T19:14:38.300Z,12.61
2019-03-30T19:15:38.274Z,12.66
2019-03-30T19:16:38.254Z,12.53
2019-03-30T19:17:38.229Z,12.55
2019-03-30T19:18:38.226Z,12.55
2019-03-30T19:19:38.226Z,12.41
2019-03-30T19:20:38.194Z,12.36
2019-03-30T19:21:38.188Z,12.36
2019-03-30T19:22:38.175Z,12.33
2019-03-30T19:23:38.159Z,12.34
2019-03-30T19:24:38.152Z,12.37
2019-03-30T19:25:38.203Z,12.36
2019-03-30T19:26:38.135Z,12.33
2019-03-30T19:27:38.120Z,12.26
2019-03-30T19:28:38.111Z,12.19
2019-03-30T19:29:38.097Z,12.22
2019-03-30T19:30:38.088Z,12.01
2019-03-30T19:31:38.090Z,12.07
2019-03-30T19:32:38.070Z,11.98
2019-03-30T19:33:38.055Z,12.01
2019-03-30T19:34:38.051Z,11.95
2019-03-30T19:35:38.044Z,11.89
2019-03-30T19:36:38.024Z,11.76
2019-03-30T19:37:38.040Z,11.79
2019-03-30T19:38:38.001Z,11.70
2019-03-30T19:39:37.988Z,11.70
2019-03-30T19:40:37.978Z,11.71
2019-03-30T19:41:37.969Z,11.75
2019-03-30T19:42:37.960Z,11.91
2019-03-30T19:43:37.963Z,11.82
2019-03-30T19:44:37.937Z,11.76
2019-03-30T19:45:37.924Z,11.85
2019-03-30T19:46:37.919Z,11.89
2019-03-30T19:47:37.908Z,11.91
2019-03-30T19:48:37.893Z,11.98
2019-03-30T19:49:37.896Z,11.73
2019-03-30T19:50:37.870Z,11.75
2019-03-30T19:51:37.860Z,11.66
2019-03-30T19:52:40.245Z,11.60
2019-03-30T19:53:37.838Z,11.56
2019-03-30T19:54:37.831Z,11.52
2019-03-30T19:55:37.834Z,11.51
2019-03-30T19:56:37.812Z,11.38
2019-03-30T19:57:37.797Z,11.46
2019-03-30T19:58:37.783Z,11.39
2019-03-30T19:59:37.779Z,11.33
2019-03-30T20:00:38.921Z,11.28
2019-03-30T20:01:37.834Z,11.27
2019-03-30T20:02:37.747Z,11.15
2019-03-30T20:03:37.730Z,11.08
2019-03-30T20:04:37.721Z,11.10
2019-03-30T20:05:37.730Z,11.03
2019-03-30T20:06:37.699Z,10.95
2019-03-30T20:07:37.715Z,10.94
2019-03-30T20:08:37.685Z,10.80
2019-03-30T20:09:37.666Z,10.88
2019-03-30T20:10:37.660Z,10.87
2019-03-30T20:11:37.644Z,10.77
2019-03-30T20:12:37.634Z,10.73
2019-03-30T20:13:37.647Z,10.70
2019-03-30T20:14:37.605Z,10.57
2019-03-30T20:15:37.622Z,10.57
2019-03-30T20:16:37.587Z,10.58
2019-03-30T20:17:37.577Z,10.52
2019-03-30T20:18:37.577Z,10.52
2019-03-30T20:19:37.711Z,10.44
2019-03-30T20:20:37.552Z,10.44
2019-03-30T20:21:37.537Z,10.51
2019-03-30T20:22:37.529Z,10.44
2019-03-30T20:23:37.511Z,10.46
2019-03-30T20:24:37.503Z,10.47
2019-03-30T20:25:37.522Z,10.42
2019-03-30T20:26:37.479Z,10.39
2019-03-30T20:27:37.468Z,10.39
2019-03-30T20:28:37.457Z,10.31
2019-03-30T20:29:37.445Z,10.46
2019-03-30T20:30:37.440Z,10.33
2019-03-30T20:31:37.440Z,10.31
2019-03-30T20:32:37.417Z,10.33
2019-03-30T20:33:37.407Z,10.25
2019-03-30T20:34:37.392Z,10.20
2019-03-30T20:35:37.385Z,10.18
2019-03-30T20:36:37.380Z,10.02
2019-03-30T20:37:37.398Z,9.96
2019-03-30T20:38:37.370Z,9.90
2019-03-30T20:39:38.099Z,9.84
2019-03-30T20:40:37.334Z,9.81
2019-03-30T20:41:37.353Z,9.71
2019-03-30T20:42:37.302Z,9.70
2019-03-30T20:43:37.305Z,9.59
2019-03-30T20:44:37.276Z,9.60
2019-03-30T20:45:37.267Z,9.55
2019-03-30T20:46:37.260Z,9.53
2019-03-30T20:47:37.254Z,9.52
2019-03-30T20:48:37.238Z,9.44
2019-03-30T20:49:37.244Z,9.50
2019-03-30T20:50:37.215Z,9.34
2019-03-30T20:51:37.207Z,9.50
2019-03-30T20:52:37.194Z,9.48
2019-03-30T20:53:37.188Z,9.44
2019-03-30T20:54:37.174Z,9.42
2019-03-30T20:55:37.225Z,9.37
2019-03-30T20:56:37.165Z,9.32
2019-03-30T20:57:37.142Z,9.23
2019-03-30T20:58:37.130Z,9.34
2019-03-30T20:59:40.251Z,9.30
2019-03-30T21:00:37.107Z,9.30
2019-03-30T21:01:38.483Z,9.23
2019-03-30T21:02:37.087Z,9.14
2019-03-30T21:03:37.074Z,9.05
2019-03-30T21:04:37.066Z,8.98
2019-03-30T21:05:37.052Z,8.90
2019-03-30T21:06:37.043Z,8.98
2019-03-30T21:07:37.057Z,9.01
2019-03-30T21:08:37.020Z,9.05
2019-03-30T21:09:37.011Z,8.98
2019-03-30T21:10:37.008Z,8.94
2019-03-30T21:11:37.021Z,8.98
2019-03-30T21:12:37.028Z,8.98
2019-03-30T21:13:37.001Z,9.05
2019-03-30T21:14:36.958Z,8.97
2019-03-30T21:15:36.945Z,8.98
2019-03-30T21:16:36.955Z,9.03
2019-03-30T21:17:36.936Z,9.00
2019-03-30T21:18:36.910Z,9.09
2019-03-30T21:19:36.918Z,9.08
2019-03-30T21:20:36.890Z,9.09
2019-03-30T21:21:36.881Z,9.11
2019-03-30T21:22:36.868Z,9.04
2019-03-30T21:23:36.859Z,9.08
2019-03-30T21:24:36.852Z,9.12
2019-03-30T21:25:36.865Z,9.11
2019-03-30T21:26:36.823Z,9.04
2019-03-30T21:27:36.819Z,9.05
2019-03-30T21:28:36.817Z,9.05
2019-03-30T21:29:36.802Z,9.11
2019-03-30T21:30:36.785Z,8.97
2019-03-30T21:31:36.788Z,8.94
2019-03-30T21:32:36.766Z,8.86
2019-03-30T21:33:36.750Z,8.82
2019-03-30T21:34:36.734Z,8.77
2019-03-30T21:35:36.730Z,8.76
2019-03-30T21:36:36.718Z,8.68
2019-03-30T21:37:36.721Z,8.64
2019-03-30T21:38:36.724Z,8.54
2019-03-30T21:39:36.689Z,8.54
2019-03-30T21:40:36.683Z,8.58
2019-03-30T21:41:36.664Z,8.50
2019-03-30T21:42:36.651Z,8.47
2019-03-30T21:43:36.658Z,8.31
2019-03-30T21:44:36.631Z,8.34
2019-03-30T21:45:36.619Z,8.31
2019-03-30T21:46:36.616Z,8.35
2019-03-30T21:47:36.600Z,8.42
2019-03-30T21:48:36.587Z,8.42
2019-03-30T21:49:36.596Z,8.39
2019-03-30T21:50:36.567Z,8.34
2019-03-30T21:51:37.188Z,8.32
2019-03-30T21:52:36.554Z,8.19